createdAt,value
2022-11-19T00:02:27.710Z,1.07
2022-11-19T00:05:12.880Z,1.06
2022-11-19T00:07:57.782Z,1.09
2022-11-19T00:10:42.675Z,1.01
2022-11-19T00:13:27.719Z,0.97
2022-11-19T00:16:14.130Z,1.02
2022-11-19T00:18:59.363Z,1.00
2022-11-19T00:21:44.965Z,1.00
2022-11-19T00:24:30.375Z,1.00
2022-11-19T00:27:15.265Z,0.88
2022-11-19T00:30:00.314Z,0.85
2022-11-19T00:32:46.244Z,0.94
2022-11-19T00:35:31.318Z,0.82
2022-11-19T00:38:16.569Z,0.91
2022-11-19T00:41:02.095Z,0.79
2022-11-19T00:43:47.708Z,0.65
2022-11-19T00:46:32.784Z,0.74
2022-11-19T00:49:18.563Z,0.68
2022-11-19T00:52:04.240Z,0.64
2022-11-19T00:54:49.268Z,0.74
2022-11-19T00:57:34.492Z,0.71
2022-11-19T01:00:20.200Z,0.71
2022-11-19T01:03:05.744Z,0.66
2022-11-19T01:05:51.652Z,0.59
2022-11-19T01:08:37.351Z,0.61
2022-11-19T01:11:25.730Z,0.50
2022-11-19T01:14:10.704Z,0.56
2022-11-19T01:16:55.804Z,0.59
2022-11-19T01:19:41.125Z,0.64
2022-11-19T01:22:26.012Z,0.62
2022-11-19T01:25:11.771Z,0.63
2022-11-19T01:27:57.144Z,0.58
2022-11-19T01:30:43.289Z,0.61
2022-11-19T01:33:28.386Z,0.61
2022-11-19T01:36:20.107Z,0.57
2022-11-19T01:39:05.577Z,0.59
2022-11-19T01:41:50.760Z,0.68
2022-11-19T01:45:00.809Z,0.71
2022-11-19T01:47:46.002Z,0.67
2022-11-19T01:50:37.502Z,0.63
2022-11-19T01:53:27.589Z,0.61
2022-11-19T01:56:13.700Z,0.62
2022-11-19T01:59:02.458Z,0.61
2022-11-19T02:01:47.760Z,0.67
2022-11-19T02:04:34.677Z,0.53
2022-11-19T02:07:21.808Z,0.56
2022-11-19T02:10:07.540Z,0.54
2022-11-19T02:13:17.631Z,0.59
2022-11-19T02:16:17.633Z,0.57
2022-11-19T02:19:21.097Z,0.52
2022-11-19T02:22:25.192Z,0.60
2022-11-19T02:25:55.545Z,0.54
2022-11-19T02:29:02.439Z,0.53
2022-11-19T02:32:05.610Z,0.56
2022-11-19T02:34:58.693Z,0.62
2022-11-19T02:37:56.157Z,0.60
2022-11-19T02:40:52.343Z,0.61
2022-11-19T02:43:41.604Z,0.58
2022-11-19T02:46:27.301Z,0.62
2022-11-19T02:49:13.259Z,0.59
2022-11-19T02:51:58.934Z,0.53
2022-11-19T02:54:44.084Z,0.45
2022-11-19T02:57:29.200Z,0.54
2022-11-19T03:00:14.904Z,0.50
2022-11-19T03:03:07.786Z,0.47
2022-11-19T03:05:58.929Z,0.45
2022-11-19T03:08:45.724Z,0.47
2022-11-19T03:11:32.834Z,0.48
2022-11-19T03:14:30.322Z,0.42
2022-11-19T03:17:20.492Z,0.49
2022-11-19T03:20:25.107Z,0.52
2022-11-19T03:23:23.052Z,0.39
2022-11-19T03:26:21.895Z,0.43
2022-11-19T03:29:11.561Z,0.39
2022-11-19T03:32:04.202Z,0.42
2022-11-19T03:34:55.269Z,0.39
2022-11-19T03:37:43.527Z,0.25
2022-11-19T03:40:31.287Z,0.21
2022-11-19T03:43:20.554Z,0.30
2022-11-19T03:46:09.958Z,0.27
2022-11-19T03:48:56.969Z,0.21
2022-11-19T03:52:13.588Z,0.26
2022-11-19T03:54:59.206Z,0.27
2022-11-19T03:57:45.217Z,0.18
2022-11-19T04:00:31.068Z,0.22
2022-11-19T04:03:16.326Z,0.13
2022-11-19T04:06:02.786Z,0.12
2022-11-19T04:08:48.064Z,0.22
2022-11-19T04:11:32.944Z,0.09
2022-11-19T04:14:17.839Z,0.03
2022-11-19T04:17:03.308Z,0.04
2022-11-19T04:19:48.192Z,0.07
2022-11-19T04:22:33.759Z,-0.09
2022-11-19T04:25:18.702Z,-0.07
2022-11-19T04:28:03.531Z,-0.15
2022-11-19T04:30:48.923Z,-0.18
2022-11-19T04:33:34.492Z,-0.27
2022-11-19T04:36:19.699Z,-0.28
2022-11-19T04:39:04.624Z,-0.26
2022-11-19T04:41:49.564Z,-0.26
2022-11-19T04:44:34.468Z,-0.28
2022-11-19T04:47:19.946Z,-0.33
2022-11-19T04:50:05.689Z,-0.38
2022-11-19T04:52:50.772Z,-0.49
2022-11-19T04:55:36.322Z,-0.57
2022-11-19T04:58:21.329Z,-0.58
2022-11-19T05:01:06.389Z,-0.62
2022-11-19T05:03:51.773Z,-0.64
2022-11-19T05:06:38.565Z,-0.74
2022-11-19T05:09:23.979Z,-0.72
2022-11-19T05:12:08.856Z,-0.73
2022-11-19T05:14:53.810Z,-0.68
2022-11-19T05:17:38.719Z,-0.73
2022-11-19T05:20:23.617Z,-0.84
2022-11-19T05:23:08.445Z,-0.89
2022-11-19T05:25:53.322Z,-0.85
2022-11-19T05:28:39.779Z,-0.88
2022-11-19T05:31:25.493Z,-0.89
2022-11-19T05:34:10.638Z,-0.86
2022-11-19T05:36:55.552Z,-0.88
2022-11-19T05:39:40.495Z,-0.95
2022-11-19T05:42:25.777Z,-0.93
2022-11-19T05:45:11.856Z,-0.98
2022-11-19T05:47:57.887Z,-1.05
2022-11-19T05:50:42.780Z,-1.01
2022-11-19T05:53:28.133Z,-1.06
2022-11-19T05:56:13.063Z,-1.17
2022-11-19T05:58:57.988Z,-1.20
2022-11-19T06:01:42.921Z,-1.13
2022-11-19T06:04:27.949Z,-1.32
2022-11-19T06:07:12.913Z,-1.30
2022-11-19T06:09:58.216Z,-1.29
2022-11-19T06:12:45.855Z,-1.23
2022-11-19T06:15:31.255Z,-1.36
2022-11-19T06:18:16.225Z,-1.29
2022-11-19T06:21:01.173Z,-1.31
2022-11-19T06:23:46.183Z,-1.34
2022-11-19T06:26:33.307Z,-1.35
2022-11-19T06:29:20.042Z,-1.37
2022-11-19T06:32:05.364Z,-1.39
2022-11-19T06:34:50.611Z,-1.47
2022-11-19T06:37:35.553Z,-1.40
2022-11-19T06:40:20.381Z,-1.34
2022-11-19T06:43:05.835Z,-1.36
2022-11-19T06:45:50.768Z,-1.51
2022-11-19T06:48:35.910Z,-1.50
2022-11-19T06:51:21.101Z,-1.49
2022-11-19T06:54:05.962Z,-1.51
2022-11-19T06:56:51.252Z,-1.61
2022-11-19T06:59:36.346Z,-1.62
2022-11-19T07:02:21.770Z,-1.64
2022-11-19T07:05:07.993Z,-1.60
2022-11-19T07:07:53.186Z,-1.77
2022-11-19T07:10:38.012Z,-1.64
2022-11-19T07:13:22.863Z,-1.68
2022-11-19T07:16:07.876Z,-1.69
2022-11-19T07:18:53.373Z,-1.69
2022-11-19T07:21:38.328Z,-1.66
2022-11-19T07:24:23.367Z,-1.69
2022-11-19T07:27:08.281Z,-1.67
2022-11-19T07:29:53.150Z,-1.69
2022-11-19T07:32:38.153Z,-1.74
2022-11-19T07:35:23.562Z,-1.71
2022-11-19T07:38:08.575Z,-1.73
2022-11-19T07:40:54.944Z,-1.65
2022-11-19T07:43:40.432Z,-1.70
2022-11-19T07:46:25.326Z,-1.66
2022-11-19T07:49:11.176Z,-1.62
2022-11-19T07:51:56.800Z,-1.61
2022-11-19T07:54:41.982Z,-1.61
2022-11-19T07:57:30.253Z,-1.52
2022-11-19T08:00:18.591Z,-1.61
2022-11-19T08:03:03.798Z,-1.63
2022-11-19T08:05:49.079Z,-1.55
2022-11-19T08:08:34.563Z,-1.45
2022-11-19T08:11:19.848Z,-1.45
2022-11-19T08:14:04.830Z,-1.37
2022-11-19T08:16:49.720Z,-1.45
2022-11-19T08:19:34.836Z,-1.43
2022-11-19T08:22:21.491Z,-1.36
2022-11-19T08:25:06.794Z,-1.32
2022-11-19T08:27:51.766Z,-1.25
2022-11-19T08:30:38.111Z,-1.35
2022-11-19T08:33:23.406Z,-1.25
2022-11-19T08:36:08.373Z,-1.24
2022-11-19T08:38:56.400Z,-1.27
2022-11-19T08:41:41.318Z,-1.34
2022-11-19T08:44:26.615Z,-1.25
2022-11-19T08:47:12.257Z,-1.17
2022-11-19T08:49:57.577Z,-1.10
2022-11-19T08:52:42.807Z,-1.11
2022-11-19T08:55:28.588Z,-1.09
2022-11-19T08:58:13.485Z,-1.07
2022-11-19T09:00:59.183Z,-1.00
2022-11-19T09:03:44.669Z,-0.98
2022-11-19T09:06:29.973Z,-0.96
2022-11-19T09:09:14.975Z,-0.86
2022-11-19T09:11:59.730Z,-0.84
2022-11-19T09:14:44.835Z,-0.83
2022-11-19T09:17:31.375Z,-0.86
2022-11-19T09:20:17.145Z,-0.93
2022-11-19T09:23:03.128Z,-0.80
2022-11-19T09:26:02.280Z,-0.69
2022-11-19T09:28:47.507Z,-0.67
2022-11-19T09:31:32.400Z,-0.53
2022-11-19T09:34:18.176Z,-0.54
2022-11-19T09:37:03.473Z,-0.37
2022-11-19T09:39:48.779Z,-0.36
2022-11-19T09:42:55.470Z,-0.33
2022-11-19T09:46:02.575Z,-0.20
2022-11-19T09:48:52.363Z,-0.35
2022-11-19T09:51:40.562Z,-0.08
2022-11-19T09:54:26.155Z,0.09
2022-11-19T09:57:18.194Z,0.24
2022-11-19T10:00:05.194Z,0.20
2022-11-19T10:02:50.945Z,0.19
2022-11-19T10:06:01.818Z,0.24
2022-11-19T10:09:02.163Z,0.40
2022-11-19T10:11:53.197Z,0.71
2022-11-19T10:14:56.365Z,0.89
2022-11-19T10:17:55.992Z,0.84
2022-11-19T10:21:09.051Z,0.99
2022-11-19T10:24:20.674Z,0.81
2022-11-19T10:27:18.143Z,0.67
2022-11-19T10:30:12.494Z,1.01
2022-11-19T10:32:57.633Z,1.43
2022-11-19T10:35:48.344Z,1.48
2022-11-19T10:38:41.292Z,1.18
2022-11-19T10:41:54.254Z,1.43
2022-11-19T10:44:43.931Z,1.17
2022-11-19T10:47:32.970Z,1.52
2022-11-19T10:50:20.903Z,1.86
2022-11-19T10:53:11.395Z,1.84
2022-11-19T10:56:00.712Z,1.89
2022-11-19T10:58:52.141Z,2.15
2022-11-19T11:01:40.728Z,1.86
2022-11-19T11:04:28.889Z,1.75
2022-11-19T11:07:14.211Z,1.79
2022-11-19T11:09:59.300Z,1.61
2022-11-19T11:12:44.191Z,1.41
2022-11-19T11:15:29.611Z,1.50
2022-11-19T11:18:15.297Z,1.70
2022-11-19T11:21:00.597Z,1.53
2022-11-19T11:23:56.655Z,1.66
2022-11-19T11:26:41.815Z,1.76
2022-11-19T11:29:27.027Z,1.65
2022-11-19T11:32:31.609Z,1.64
2022-11-19T11:35:34.431Z,1.99
2022-11-19T11:38:23.059Z,1.97
2022-11-19T11:42:04.367Z,2.38
2022-11-19T11:44:32.558Z,2.32
2022-11-19T11:47:22.480Z,2.69
2022-11-19T11:50:08.026Z,2.60
2022-11-19T11:52:55.476Z,2.51
2022-11-19T11:55:40.958Z,2.46
2022-11-19T11:58:32.326Z,2.52
2022-11-19T12:01:17.740Z,2.09
2022-11-19T12:04:02.873Z,2.35
2022-11-19T12:07:10.209Z,2.40
2022-11-19T12:09:55.521Z,2.18
2022-11-19T12:13:09.603Z,2.31
2022-11-19T12:16:21.818Z,2.33
2022-11-19T12:19:22.159Z,2.41
2022-11-19T12:22:26.288Z,2.33
2022-11-19T12:25:33.022Z,2.85
2022-11-19T12:28:43.926Z,3.19
2022-11-19T12:31:47.691Z,3.25
2022-11-19T12:35:11.732Z,2.75
2022-11-19T12:38:26.981Z,2.70
2022-11-19T12:41:49.454Z,3.01
2022-11-19T12:45:12.201Z,3.67
2022-11-19T12:48:06.272Z,3.39
2022-11-19T12:51:21.973Z,3.64
2022-11-19T12:54:34.617Z,3.59
2022-11-19T12:57:29.240Z,3.48
2022-11-19T13:00:17.777Z,3.41
2022-11-19T13:03:09.278Z,3.75
2022-11-19T13:06:00.484Z,3.58
2022-11-19T13:08:51.651Z,4.06
2022-11-19T13:11:44.709Z,3.99
2022-11-19T13:14:50.712Z,3.93
2022-11-19T13:17:45.050Z,4.28
2022-11-19T13:20:51.549Z,4.86
2022-11-19T13:23:45.920Z,4.78
2022-11-19T13:26:33.164Z,4.71
2022-11-19T13:29:37.044Z,4.81
2022-11-19T13:32:46.445Z,4.61
2022-11-19T13:35:41.989Z,5.88
2022-11-19T13:38:51.635Z,5.21
2022-11-19T13:41:44.252Z,4.88
2022-11-19T13:44:29.936Z,5.26
2022-11-19T13:47:47.390Z,5.09
2022-11-19T13:50:40.980Z,4.94
2022-11-19T13:53:38.912Z,5.16
2022-11-19T13:56:38.347Z,4.60
2022-11-19T13:59:44.200Z,5.20
2022-11-19T14:02:54.523Z,5.43
2022-11-19T14:05:53.804Z,5.13
2022-11-19T14:09:00.385Z,4.64
2022-11-19T14:12:03.274Z,4.63
2022-11-19T14:15:25.872Z,4.61
2022-11-19T14:18:24.020Z,4.93
2022-11-19T14:21:24.604Z,4.85
2022-11-19T14:24:24.919Z,4.84
2022-11-19T14:27:19.252Z,4.37
2022-11-19T14:30:10.809Z,4.75
2022-11-19T14:32:56.224Z,4.56
2022-11-19T14:35:41.192Z,4.82
2022-11-19T14:38:36.400Z,4.82
2022-11-19T14:41:27.312Z,4.78
2022-11-19T14:44:24.989Z,4.02
2022-11-19T14:47:22.169Z,4.26
2022-11-19T14:50:29.359Z,4.88
2022-11-19T14:53:19.789Z,4.51
2022-11-19T14:56:13.270Z,4.37
2022-11-19T14:59:14.271Z,4.30
2022-11-19T15:02:22.783Z,4.28
2022-11-19T15:05:26.337Z,3.94
2022-11-19T15:08:18.080Z,3.31
2022-11-19T15:11:06.352Z,2.78
2022-11-19T15:14:28.896Z,2.50
2022-11-19T15:17:14.042Z,2.37
2022-11-19T15:20:17.157Z,2.29
2022-11-19T15:23:17.589Z,2.31
2022-11-19T15:26:11.909Z,2.29
2022-11-19T15:29:22.454Z,2.05
2022-11-19T15:32:26.073Z,1.97
2022-11-19T15:35:19.985Z,1.92
2022-11-19T15:38:19.728Z,1.87
2022-11-19T15:41:10.465Z,1.79
2022-11-19T15:43:59.364Z,1.65
2022-11-19T15:46:53.289Z,1.56
2022-11-19T15:49:40.398Z,1.41
2022-11-19T15:52:32.134Z,1.34
2022-11-19T15:55:23.370Z,1.40
2022-11-19T15:58:15.932Z,1.15
2022-11-19T16:01:01.951Z,1.15
2022-11-19T16:03:48.396Z,0.95
2022-11-19T16:06:36.357Z,0.93
2022-11-19T16:09:24.602Z,0.89
2022-11-19T16:12:20.801Z,0.81
2022-11-19T16:15:22.834Z,0.74
2022-11-19T16:18:19.067Z,0.65
2022-11-19T16:21:04.421Z,0.64
2022-11-19T16:23:49.998Z,0.68
2022-11-19T16:26:43.931Z,0.39
2022-11-19T16:29:40.765Z,0.32
2022-11-19T16:32:27.397Z,0.35
2022-11-19T16:35:28.607Z,0.25
2022-11-19T16:38:27.055Z,0.06
2022-11-19T16:41:12.912Z,-0.17
2022-11-19T16:43:59.100Z,-0.20
2022-11-19T16:46:44.793Z,-0.01
2022-11-19T16:49:32.862Z,0.00
2022-11-19T16:52:33.292Z,-0.13
2022-11-19T16:55:18.173Z,-0.42
2022-11-19T16:58:14.311Z,-0.35
2022-11-19T17:00:59.418Z,-0.47
2022-11-19T17:03:45.145Z,-0.57
2022-11-19T17:06:33.012Z,-0.65
2022-11-19T17:09:41.801Z,-0.60
2022-11-19T17:12:28.544Z,-0.57
2022-11-19T17:15:37.572Z,-0.50
2022-11-19T17:18:32.321Z,-0.63
2022-11-19T17:21:29.495Z,-0.57
2022-11-19T17:24:17.737Z,-0.65
2022-11-19T17:27:03.333Z,-0.73
2022-11-19T17:29:49.114Z,-0.81
2022-11-19T17:32:39.064Z,-0.89
2022-11-19T17:35:36.396Z,-0.99
2022-11-19T17:38:24.773Z,-1.24
2022-11-19T17:41:14.686Z,-1.34
2022-11-19T17:43:59.939Z,-1.21
2022-11-19T17:46:44.885Z,-1.23
2022-11-19T17:49:30.079Z,-1.30
2022-11-19T17:52:25.822Z,-1.23
2022-11-19T17:55:20.360Z,-1.44
2022-11-19T17:58:05.566Z,-1.50
2022-11-19T18:00:50.962Z,-1.28
2022-11-19T18:03:36.137Z,-1.52
2022-11-19T18:06:21.558Z,-1.58
2022-11-19T18:09:07.378Z,-1.56
2022-11-19T18:11:52.152Z,-1.61
2022-11-19T18:14:37.501Z,-1.62
2022-11-19T18:17:23.131Z,-1.42
2022-11-19T18:20:09.038Z,-1.60
2022-11-19T18:22:54.249Z,-1.71
2022-11-19T18:25:39.919Z,-1.45
2022-11-19T18:28:24.908Z,-1.39
2022-11-19T18:31:17.620Z,-1.33
2022-11-19T18:34:02.755Z,-1.64
2022-11-19T18:36:48.091Z,-1.72
2022-11-19T18:39:33.683Z,-1.72
2022-11-19T18:42:18.806Z,-2.03
2022-11-19T18:45:05.121Z,-2.20
2022-11-19T18:47:50.481Z,-2.08
2022-11-19T18:50:35.938Z,-1.90
2022-11-19T18:53:20.978Z,-1.87
2022-11-19T18:56:06.627Z,-1.76
2022-11-19T18:58:51.823Z,-1.69
2022-11-19T19:01:37.434Z,-1.74
2022-11-19T19:04:23.299Z,-1.79
2022-11-19T19:07:08.822Z,-1.78
2022-11-19T19:09:54.394Z,-1.71
2022-11-19T19:12:39.811Z,-1.79
2022-11-19T19:15:24.744Z,-1.90
2022-11-19T19:18:10.652Z,-2.05
2022-11-19T19:20:56.064Z,-2.08
2022-11-19T19:23:41.657Z,-2.01
2022-11-19T19:26:27.118Z,-2.13
2022-11-19T19:29:12.310Z,-2.20
2022-11-19T19:31:57.996Z,-2.14
2022-11-19T19:34:43.317Z,-2.08
2022-11-19T19:37:28.314Z,-2.16
2022-11-19T19:40:13.843Z,-2.27
2022-11-19T19:42:58.829Z,-2.27
2022-11-19T19:45:43.718Z,-2.30
2022-11-19T19:48:28.607Z,-2.14
2022-11-19T19:51:15.105Z,-2.21
2022-11-19T19:54:00.958Z,-2.31
2022-11-19T19:56:46.156Z,-2.43
2022-11-19T19:59:31.459Z,-2.53
2022-11-19T20:02:16.626Z,-2.64
2022-11-19T20:05:02.171Z,-2.59
2022-11-19T20:07:47.197Z,-2.57
2022-11-19T20:10:32.230Z,-2.57
2022-11-19T20:13:17.376Z,-2.57
2022-11-19T20:16:05.774Z,-2.52
2022-11-19T20:18:52.918Z,-2.55
2022-11-19T20:21:38.383Z,-2.39
2022-11-19T20:24:23.635Z,-2.52
2022-11-19T20:27:08.796Z,-2.52
2022-11-19T20:29:54.144Z,-2.49
2022-11-19T20:32:39.003Z,-2.75
2022-11-19T20:35:24.674Z,-2.72
2022-11-19T20:38:09.997Z,-2.61
2022-11-19T20:41:00.167Z,-2.52
2022-11-19T20:43:50.083Z,-2.64
2022-11-19T20:46:37.706Z,-2.62
2022-11-19T20:49:25.773Z,-2.66
2022-11-19T20:52:11.330Z,-2.66
2022-11-19T20:54:57.939Z,-2.80
2022-11-19T20:57:45.501Z,-3.05
2022-11-19T21:00:30.811Z,-3.17
2022-11-19T21:03:16.646Z,-3.09
2022-11-19T21:06:03.821Z,-3.08
2022-11-19T21:08:49.021Z,-3.26
2022-11-19T21:11:34.534Z,-3.22
2022-11-19T21:14:20.156Z,-3.24
2022-11-19T21:17:05.726Z,-3.25
2022-11-19T21:19:51.150Z,-3.17
2022-11-19T21:22:36.432Z,-3.11
2022-11-19T21:25:21.685Z,-3.22
2022-11-19T21:28:07.230Z,-3.32
2022-11-19T21:30:52.790Z,-3.53
2022-11-19T21:33:38.160Z,-3.23
2022-11-19T21:36:23.582Z,-3.14
2022-11-19T21:39:09.989Z,-3.23
2022-11-19T21:41:55.052Z,-3.27
2022-11-19T21:44:40.422Z,-3.06
2022-11-19T21:47:25.525Z,-3.24
2022-11-19T21:50:10.707Z,-3.33
2022-11-19T21:52:55.613Z,-3.25
2022-11-19T21:55:45.315Z,-3.31
2022-11-19T21:58:30.768Z,-3.25
2022-11-19T22:01:16.668Z,-3.43
2022-11-19T22:04:02.423Z,-3.50
2022-11-19T22:06:47.653Z,-3.23
2022-11-19T22:09:32.783Z,-3.51
2022-11-19T22:12:18.180Z,-3.73
2022-11-19T22:15:03.709Z,-3.71
2022-11-19T22:17:48.826Z,-3.71
2022-11-19T22:20:34.095Z,-3.62
2022-11-19T22:23:24.161Z,-3.53
2022-11-19T22:26:11.546Z,-3.53
2022-11-19T22:28:57.374Z,-3.47
2022-11-19T22:31:42.824Z,-3.51
2022-11-19T22:34:28.128Z,-3.71
2022-11-19T22:37:13.245Z,-3.56
2022-11-19T22:39:58.717Z,-3.69
2022-11-19T22:42:43.938Z,-3.76
2022-11-19T22:45:29.352Z,-3.77
2022-11-19T22:48:14.669Z,-3.76
2022-11-19T22:51:04.439Z,-3.57
2022-11-19T22:53:51.950Z,-3.65
2022-11-19T22:56:37.939Z,-3.75
2022-11-19T22:59:23.763Z,-3.81
2022-11-19T23:02:09.046Z,-3.67
2022-11-19T23:04:53.843Z,-3.83
2022-11-19T23:07:38.616Z,-3.87
2022-11-19T23:10:24.219Z,-4.03
2022-11-19T23:13:12.083Z,-4.07
2022-11-19T23:16:10.235Z,-4.08
2022-11-19T23:18:56.207Z,-4.07
2022-11-19T23:21:41.542Z,-3.99
2022-11-19T23:24:29.430Z,-4.00
2022-11-19T23:27:20.766Z,-4.08
2022-11-19T23:30:08.505Z,-4.28
2022-11-19T23:32:53.913Z,-4.41
2022-11-19T23:35:39.964Z,-4.40
2022-11-19T23:38:26.279Z,-4.23
2022-11-19T23:41:13.259Z,-4.17
2022-11-19T23:43:58.364Z,-4.11
2022-11-19T23:46:43.724Z,-4.01
2022-11-19T23:49:29.109Z,-3.98
2022-11-19T23:52:14.150Z,-3.95
2022-11-19T23:54:59.132Z,-4.04
2022-11-19T23:57:44.079Z,-4.07
